Latest Weather Observations for Sydney - Observatory Hill

IDN60901

Issued at 5:41 pm EDT Monday 17 January 2022 (issued every 10 minutes, with the page automatically refreshed every 10 minutes)

About weather observations | Map of Sydney area stations | Latest observations for Sydney area | Other Formats
Station Details ID: 066214 Name: SYDNEY (OBSERVATORY HILL) Lat: -33.86 Lon: 151.20 Height: 43.37 m
Data from the previous 72 hours. | See also: Recent months at Sydney - Observatory Hill

* Apparent temperature (App Temp) for Sydney - Observatory Hill is calculated using temperature observations collected at Sydney - Observatory Hill and wind observations collected at Fort Denison, as wind observations are not currently provided for Sydney - Observatory Hill.

Date/Time
EDT
Temp
°C
App
Temp
°C
Dew
Point
°C
Rel
Hum
%
Delta-T
°C
Wind Press
QNH
hPa
Press
MSL
hPa
Rain since
9am
mm
Dir  Spd
km/h
Gust
km/h
Spd
kts
Gust
kts
17/05:30pm 26.3 28.5 22.6 80 2.5 NE 15 - 8 - 1009.1 1008.9 0.0
17/05:00pm 26.2 28.2 22.3 79 2.6 NE 15 - 8 - 1008.7 1008.6 0.0
17/04:30pm 26.8 28.3 22.0 75 3.2 NE 17 - 9 - 1008.8 1008.7 0.0
17/04:00pm 27.5 29.0 22.7 75 3.3 ENE 19 - 10 - 1008.8 1008.7 0.0
17/03:30pm 26.8 27.7 22.6 78 2.8 E 22 - 12 - 1008.9 1008.8 0.0
17/03:00pm 27.7 29.1 22.9 75 3.3 E 20 - 11 - 1009.2 1009.0 0.0
17/02:30pm 27.8 29.4 23.2 76 3.1 E 20 - 11 - 1009.3 1009.1 0.0
17/02:00pm 27.6 29.0 22.8 75 3.3 E 20 - 11 - 1009.4 1009.2 0.0
17/01:30pm 26.8 28.1 22.6 78 2.8 E 20 - 11 - 1009.6 1009.4 0.0
17/01:00pm 28.0 29.4 22.5 72 3.7 E 19 - 10 - 1010.0 1009.8 0.0
17/12:30pm 28.3 30.5 23.2 74 3.5 E 17 - 9 - 1010.2 1010.0 0.0
17/12:00pm 27.6 28.9 22.3 73 3.6 E 19 - 10 - 1010.6 1010.4 0.0
17/11:30am 27.8 29.1 22.7 74 3.5 E 20 - 11 - 1010.7 1010.5 0.0
17/11:00am 26.9 28.0 22.3 76 3.1 E 20 - 11 - 1010.9 1010.7 0.0
17/10:30am 27.5 29.0 22.0 72 3.7 E 17 - 9 - 1011.1 1010.9 0.0
17/10:00am 26.8 30.0 21.6 73 3.5 ESE 7 - 4 - 1011.0 1010.8 0.0
17/09:30am 25.1 28.0 21.0 78 2.7 E 7 - 4 - 1010.9 1010.7 0.0
17/09:00am 24.3 28.4 22.2 88 1.4 SSW 4 - 2 - 1011.3 1011.1 0.0
17/08:30am 23.2 26.7 21.8 92 0.9 E 6 - 3 - 1011.2 1011.0 0.0
17/08:00am 22.6 26.4 21.6 94 0.7 ENE 4 - 2 - 1011.1 1010.9 0.0
17/07:30am 22.2 26.1 21.2 94 0.7 NE 2 - 1 - 1011.1 1010.9 0.0
17/07:00am 21.9 25.8 21.1 95 0.5 ENE 2 - 1 - 1011.2 1011.0 0.0
17/06:30am 21.4 24.3 20.6 95 0.5 E 6 - 3 - 1009.6 1009.4 0.0
17/06:00am 21.3 24.7 20.1 93 0.8 S 2 - 1 - 1010.1 1009.9 0.0
17/05:30am 21.5 24.5 20.1 92 0.9 SW 4 - 2 - 1010.1 1009.9 0.0
17/05:00am 21.8 25.0 20.4 92 0.9 W 4 - 2 - 1010.2 1010.0 0.0
17/04:30am 21.7 23.9 20.3 92 0.9 WNW 9 - 5 - 1010.2 1010.0 0.0
17/04:00am 22.1 23.3 20.6 91 1.0 W 15 - 8 - 1010.1 1009.9 0.0
17/03:30am 22.3 25.2 20.6 90 1.1 SSW 6 - 3 - 1010.2 1010.0 0.0
17/03:00am 22.6 25.4 20.9 90 1.1 SSW 7 - 4 - 1010.3 1010.1 0.0
17/02:30am 23.0 25.5 21.1 89 1.2 WSW 9 - 5 - 1010.7 1010.5 0.0
17/02:00am 23.2 25.5 21.3 89 1.3 W 11 - 6 - 1011.0 1010.8 0.0
17/01:30am 23.3 26.6 21.4 89 1.3 SSW 6 - 3 - 1011.1 1010.9 0.0
17/01:00am 23.4 26.5 21.5 89 1.3 SSW 7 - 4 - 1011.1 1010.9 0.0
17/12:30am 23.4 26.3 21.7 90 1.1 SSW 9 - 5 - 1011.0 1010.8 0.0
17/12:00am 23.4 26.3 21.7 90 1.1 SSW 9 - 5 - 1010.9 1010.7 0.0
 
Date/Time
EDT
Temp
°C
App
Temp
°C
Dew
Point
°C
Rel
Hum
%
Delta-T
°C
Wind Press
QNH
hPa
Press
MSL
hPa
Rain since
9am
mm
Dir  Spd
km/h
Gust
km/h
Spd
kts
Gust
kts
16/11:30pm 23.3 25.7 21.6 90 1.1 SW 11 - 6 - 1011.4 1011.2 0.0
16/11:00pm 23.3 26.2 21.7 91 1.1 SSW 9 - 5 - 1011.4 1011.2 0.0
16/10:30pm 23.2 26.4 21.6 91 1.1 SSW 7 - 4 - 1011.5 1011.3 0.0
16/10:00pm 23.3 26.1 21.6 90 1.1 SSW 9 - 5 - 1011.2 1011.0 0.0
16/09:30pm 23.4 26.1 21.3 88 1.4 SSW 9 - 5 - 1010.7 1010.5 0.0
16/09:00pm 23.7 26.3 21.2 86 1.6 SSE 9 - 5 - 1010.4 1010.2 0.0
16/08:30pm 24.0 26.5 21.1 84 1.9 S 9 - 5 - 1010.0 1009.8 0.0
16/08:00pm 24.2 26.4 21.1 83 2.0 S 11 - 6 - 1009.6 1009.4 0.0
16/07:30pm 24.6 25.6 21.1 81 2.3 SSE 17 - 9 - 1009.2 1009.0 0.0
16/07:00pm 25.2 26.0 21.3 79 2.6 SE 19 - 10 - 1008.9 1008.8 0.0
16/06:30pm 25.8 26.5 21.5 77 2.9 SE 20 - 11 - 1008.7 1008.6 0.0
16/06:00pm 26.0 26.6 21.4 76 3.1 SSE 20 - 11 - 1008.5 1008.4 0.0
16/05:30pm 26.1 25.5 21.3 75 3.2 SE 26 - 14 - 1008.5 1008.4 0.0
16/05:00pm 27.5 27.4 21.5 70 4.0 SSE 24 - 13 - 1008.3 1008.2 0.0
16/04:30pm 27.0 26.8 20.6 68 4.2 SSE 22 - 12 - 1008.1 1008.0 0.0
16/04:00pm 27.9 27.8 21.4 67 4.3 SSE 24 - 13 - 1008.1 1008.0 0.0
16/03:30pm 27.9 27.8 21.4 67 4.3 SSE 24 - 13 - 1008.0 1007.9 0.0
16/03:00pm 28.4 29.4 21.7 67 4.5 SSW 19 - 10 - 1008.1 1008.0 0.0
16/02:30pm 29.1 30.9 22.6 68 4.4 S 17 - 9 - 1008.4 1008.3 0.0
16/02:00pm 27.8 28.6 22.5 73 3.6 SSE 22 - 12 - 1008.8 1008.7 0.0
16/01:30pm 27.4 27.9 21.9 72 3.7 S 22 - 12 - 1009.3 1009.1 0.0
16/01:00pm 27.8 28.2 21.8 70 4.0 S 22 - 12 - 1009.2 1009.0 0.0
16/12:30pm 27.0 26.9 21.5 72 3.7 S 24 - 13 - 1009.2 1009.0 0.0
16/12:00pm 27.3 27.3 21.6 71 3.8 S 24 - 13 - 1009.2 1009.0 0.0
16/11:30am 27.3 27.7 21.8 72 3.7 S 22 - 12 - 1009.2 1009.0 0.0
16/11:00am 26.8 27.1 21.6 73 3.5 S 22 - 12 - 1008.8 1008.7 0.0
16/10:30am 26.6 28.1 22.0 76 3.1 SSW 17 - 9 - 1008.9 1008.8 0.0
16/10:00am 24.6 24.8 21.3 82 2.2 S 22 - 12 - 1008.7 1008.6 0.0
16/09:30am 24.6 25.5 21.5 83 2.1 S 19 - 10 - 1008.6 1008.5 0.0
16/09:00am 24.4 25.3 21.5 84 1.9 SSW 19 - 10 - 1008.4 1008.3 0.0
16/08:30am 24.0 25.2 21.5 86 1.7 SSW 17 - 9 - 1008.2 1008.1 0.0
16/08:00am 23.4 24.3 21.5 89 1.3 SSW 19 - 10 - 1008.3 1008.2 0.0
16/07:30am 22.9 23.1 21.4 91 1.0 SSW 22 - 12 - 1008.2 1008.1 0.0
16/07:00am 22.5 22.2 21.1 92 0.9 SSW 24 - 13 - 1007.8 1007.7 0.0
16/06:30am 22.3 21.6 21.1 93 0.8 SSW 26 - 14 - 1007.2 1007.1 0.0
16/06:00am 22.3 22.4 21.1 93 0.8 SSW 22 - 12 - 1006.7 1006.6 0.0
16/05:30am 22.2 21.8 21.0 93 0.8 S 24 - 13 - 1006.1 1006.0 0.0
16/05:00am 22.2 21.7 20.8 92 0.9 S 24 - 13 - 1005.6 1005.4 0.0
16/04:30am 22.4 22.4 20.9 91 1.0 S 22 - 12 - 1005.1 1004.9 0.0
16/04:00am 22.5 23.1 21.1 92 0.9 SSW 19 - 10 - 1005.0 1004.8 0.0
16/03:30am 22.9 24.5 20.8 88 1.4 SSW 13 - 7 - 1004.8 1004.6 0.0
16/03:00am 22.8 25.4 20.0 84 1.8 SW 6 - 3 - 1004.6 1004.4 0.0
16/02:30am 22.6 25.2 20.1 86 1.6 SE 6 - 3 - 1004.7 1004.5 0.0
16/02:00am 22.6 25.3 19.4 82 2.0 SE 4 - 2 - 1004.6 1004.4 0.0
16/01:30am 22.7 25.6 20.6 88 1.4 N 6 - 3 - 1004.5 1004.3 0.0
16/01:00am 23.0 26.0 20.1 84 1.9 E 4 - 2 - 1004.9 1004.7 0.0
16/12:30am 23.3 25.0 20.2 83 2.0 N 11 - 6 - 1004.7 1004.5 0.0
16/12:00am 23.3 25.5 20.4 84 1.9 NNE 9 - 5 - 1005.0 1004.8 0.0
 
Date/Time
EDT
Temp
°C
App
Temp
°C
Dew
Point
°C
Rel
Hum
%
Delta-T
°C
Wind Press
QNH
hPa
Press
MSL
hPa
Rain since
9am
mm
Dir  Spd
km/h
Gust
km/h
Spd
kts
Gust
kts
15/11:30pm 23.7 26.3 20.4 82 2.1 NE 7 - 4 - 1005.2 1005.0 0.0
15/11:00pm 23.9 25.2 20.2 80 2.4 W 13 - 7 - 1004.7 1004.5 0.0
15/10:30pm 24.4 25.0 20.3 78 2.7 NW 17 - 9 - 1004.5 1004.3 0.0
15/10:00pm 24.5 26.2 20.2 77 2.8 NW 11 - 6 - 1004.9 1004.7 0.0
15/09:30pm 24.9 26.8 19.7 73 3.4 SE 9 - 5 - 1004.5 1004.3 0.0
15/09:00pm 25.0 27.3 19.8 73 3.4 NNE 7 - 4 - 1004.1 1003.9 0.0
15/08:30pm 25.0 27.0 20.0 74 3.2 NE 9 - 5 - 1004.7 1004.5 0.0
15/08:00pm 24.9 26.7 20.4 76 2.9 NNE 11 - 6 - 1004.8 1004.6 0.0
15/07:30pm 25.4 26.4 21.1 77 2.8 E 17 - 9 - 1004.1 1003.9 0.0
15/07:00pm 27.0 27.8 19.9 65 4.6 NE 15 - 8 - 1003.3 1003.1 0.0
15/06:49pm 27.0 - 20.3 66 4.4 - - - - - 1003.3 1003.1 0.0
15/06:30pm 27.4 27.8 20.7 67 4.4 NE 19 - 10 - 1005.5 1005.3 0.0
15/06:29pm 27.4 - 21.0 68 4.2 - - - - - 1005.1 1004.9 0.0
15/06:00pm 26.7 27.4 21.2 72 3.7 NE 19 - 10 - 1003.1 1002.9 0.0
15/05:30pm 26.7 28.8 21.7 74 3.3 NE 13 - 7 - 1003.2 1003.0 0.0
15/05:00pm 25.4 27.4 21.5 79 2.6 NE 13 - 7 - 1003.4 1003.2 0.0
15/04:30pm 25.9 26.3 21.8 78 2.7 ENE 22 - 12 - 1003.6 1003.4 0.0
15/04:00pm 26.4 26.1 21.8 76 3.1 E 26 - 14 - 1003.8 1003.6 0.0
15/03:30pm 27.8 29.0 22.5 73 3.6 ENE 20 - 11 - 1004.0 1003.8 0.0
15/03:00pm 27.4 28.8 22.8 76 3.1 ENE 20 - 11 - 1004.1 1003.9 0.0
15/02:30pm 26.1 25.4 21.1 74 3.3 E 26 - 14 - 1004.4 1004.2 0.0
15/02:00pm 27.2 29.9 22.2 74 3.4 ESE 11 - 6 - 1004.9 1004.7 0.0
15/01:30pm 27.3 31.6 23.3 79 2.7 ESE 6 - 3 - 1005.1 1004.9 0.0
15/01:00pm 25.2 28.5 21.9 82 2.2 E 7 - 4 - 1005.4 1005.2 0.0
15/12:30pm 25.0 27.9 21.7 82 2.2 ENE 9 - 5 - 1005.4 1005.2 0.0
15/12:00pm 25.3 27.0 21.6 80 2.5 E 15 - 8 - 1005.4 1005.2 0.0
15/11:30am 26.2 27.4 22.1 78 2.8 E 19 - 10 - 1005.1 1004.9 0.0
15/11:00am 25.4 27.6 21.9 81 2.3 E 13 - 7 - 1005.3 1005.1 0.0
15/10:30am 24.7 28.1 22.0 85 1.8 ENE 7 - 4 - 1005.5 1005.3 0.0
15/10:00am 23.4 26.8 21.7 90 1.1 NE 6 - 3 - 1005.8 1005.6 0.0
15/09:30am 22.9 25.7 21.5 92 0.9 NNE 9 - 5 - 1006.0 1005.8 0.0
15/09:00am 22.6 25.3 21.4 93 0.8 NNE 9 - 5 - 1006.3 1006.2 0.4
15/08:30am 22.3 25.0 21.3 94 0.7 ENE 9 - 5 - 1006.3 1006.2 0.4
15/08:00am 21.8 23.6 21.1 96 0.5 ENE 13 - 7 - 1005.7 1005.5 0.4
15/07:30am 21.6 23.7 20.9 96 0.5 E 11 - 6 - 1005.6 1005.4 0.4
15/07:00am 21.6 24.5 20.6 94 0.6 W 6 - 3 - 1006.3 1006.2 0.2
15/06:30am 21.6 24.6 20.9 96 0.5 ENE 6 - 3 - 1006.1 1006.0 0.0
15/06:00am 21.5 24.5 20.8 96 0.5 ENE 6 - 3 - 1006.1 1006.0 0.0
15/05:30am 21.4 24.1 20.6 95 0.5 ENE 7 - 4 - 1005.9 1005.7 0.0
15/05:00am 21.3 24.4 20.3 94 0.6 ESE 4 - 2 - 1006.0 1005.8 0.0
15/04:30am 21.4 24.9 20.4 94 0.6 W 2 - 1 - 1005.9 1005.7 0.0
15/04:00am 21.4 24.6 20.4 94 0.6 ENE 4 - 2 - 1005.4 1005.2 0.0
15/03:30am 21.4 24.9 20.4 94 0.6 ENE 2 - 1 - 1005.2 1005.0 0.0
15/03:00am 21.6 24.5 20.6 94 0.6 NE 6 - 3 - 1005.3 1005.1 0.0
15/02:30am 21.6 24.3 20.2 92 0.9 N 6 - 3 - 1005.7 1005.5 0.0
15/02:00am 21.9 24.5 20.5 92 0.9 NNE 7 - 4 - 1005.8 1005.6 0.0
15/01:30am 22.0 24.2 20.5 91 1.0 NE 9 - 5 - 1006.2 1006.1 0.0
15/01:00am 22.2 24.8 20.5 90 1.1 NE 7 - 4 - 1006.4 1006.3 0.0
15/12:30am 22.4 25.1 20.3 88 1.4 ENE 6 - 3 - 1007.0 1006.9 0.0
15/12:00am 22.6 24.8 20.5 88 1.4 NE 9 - 5 - 1007.1 1007.0 0.0
 
Date/Time
EDT
Temp
°C
App
Temp
°C
Dew
Point
°C
Rel
Hum
%
Delta-T
°C
Wind Press
QNH
hPa
Press
MSL
hPa
Rain since
9am
mm
Dir  Spd
km/h
Gust
km/h
Spd
kts
Gust
kts
14/11:30pm 22.6 24.0 20.3 87 1.5 NNE 13 - 7 - 1007.6 1007.5 0.0
14/11:00pm 22.8 24.8 20.7 88 1.4 NE 11 - 6 - 1007.6 1007.5 0.0
14/10:30pm 23.0 24.5 20.5 86 1.6 NE 13 - 7 - 1007.9 1007.8 0.0
14/10:00pm 23.2 23.6 20.7 86 1.6 NNE 19 - 10 - 1008.1 1008.0 0.0
14/09:30pm 23.5 23.8 20.4 83 2.0 NE 19 - 10 - 1008.2 1008.1 0.0
14/09:00pm 23.8 23.8 20.1 80 2.4 NE 20 - 11 - 1008.1 1008.0 0.0
14/08:30pm 24.0 24.4 19.9 78 2.6 NE 17 - 9 - 1008.2 1008.1 0.0
14/08:00pm 24.2 23.7 19.9 77 2.8 NE 22 - 12 - 1007.9 1007.8 0.0
14/07:30pm 24.6 23.6 19.7 74 3.2 NNE 24 - 13 - 1007.8 1007.7 0.0
14/07:00pm 24.9 24.0 19.9 74 3.2 NNE 24 - 13 - 1007.8 1007.7 0.0
14/06:30pm 25.1 25.4 20.4 75 3.1 NNE 19 - 10 - 1007.8 1007.7 0.0
14/06:00pm 25.2 25.1 20.0 73 3.4 NE 20 - 11 - 1007.8 1007.7 0.0

Latest Capital City Observations: Canberra | Sydney | Melbourne | Brisbane | Adelaide | Perth | Hobart | Darwin

Other formats

Comma delimited format used in spreadsheet applications
http://www.bom.gov.au/fwo/IDN60901/IDN60901.94768.axf

JavaScript Object Notation format (JSON) in row-major order
http://www.bom.gov.au/fwo/IDN60901/IDN60901.94768.json

Data quality

Most of these data are generated automatically and are frequently updated. Quality checks on data are not normally performed. It is possible for incorrect values to appear. Refer to information at About Latest Weather Observations and please check the disclaimer before using these data.